(°C)
(°C)
E
E
E
E
E
E
E
(km/h)
7-14
7-16
7-16
7-16
8-16
8-17
8-15
(mm)
0
0
0
0
0
0
0
(%)
0
0
0
0
0
0
0

Elevación del sol

/ -3.8°
sun-icon
UV 3
07:00
19:16
Gibosa menguante (209°)
20:05
09:32

METAR a 57.92°N 56.02°E (USPP)

Hora Condiciones Temperatura/
Punto de condensación
Viento Visibilidad Tiempo Nubes Presión Cambiar Bruto
VFR 7°C / 2°C 130º 6kt >10km - Clouds and Visibility OK 1026 No Significant change. Runway 21: Clear and dry, 51-100% contamination with <1mm, friction coefficient 0.60. USPP 231430Z 13003MPS CAVOK 07/02 Q1026 R21/090060 NOSIG RMK QFE758
VFR 9°C / 3°C 130º 4kt >10km - Clouds and Visibility OK 1026 No Significant change. Runway 21: Clear and dry, 51-100% contamination with <1mm, friction coefficient 0.60. USPP 231400Z 13002MPS CAVOK 09/03 Q1026 R21/090060 NOSIG RMK QFE758
VFR 11°C / 4°C 120º 6kt >10km - Clouds and Visibility OK 1026 No Significant change. Runway 21: Clear and dry, 51-100% contamination with <1mm, friction coefficient 0.60. USPP 231330Z 12003MPS CAVOK 11/04 Q1026 R21/090060 NOSIG RMK QFE758
VFR 12°C / 4°C 120º 4kt >10km - Clouds and Visibility OK 1026 No Significant change. Runway 03: Clear and dry, 51-100% contamination with <1mm, friction coefficient 0.60. USPP 231300Z 12002MPS CAVOK 12/04 Q1026 R03/090060 NOSIG RMK QFE758
VFR 13°C / 3°C 120º variable 080º to 150º 8kt >10km - Clouds and Visibility OK 1026 No Significant change. Runway 21: Clear and dry, 51-100% contamination with <1mm, friction coefficient 0.60. USPP 231230Z 12004MPS 080V150 CAVOK 13/03 Q1026 R21/090060 NOSIG RMK QFE758
VFR 13°C / 3°C 120º variable 090º to 170º 6kt >10km - Clouds and Visibility OK 1026 No Significant change. Runway 21: Clear and dry, 51-100% contamination with <1mm, friction coefficient 0.60. USPP 231200Z 12003MPS 090V170 CAVOK 13/03 Q1026 R21/090060 NOSIG RMK QFE758
VFR 14°C / 3°C 120º variable 070º to 160º 6kt >10km - Clouds and Visibility OK 1026 No Significant change. Runway 21: Clear and dry, 51-100% contamination with <1mm, friction coefficient 0.60. USPP 231130Z 12003MPS 070V160 CAVOK 14/03 Q1026 R21/090060 NOSIG RMK QFE759
VFR 14°C / 3°C 150º variable 120º to 180º 6kt >10km - Clouds and Visibility OK 1026 No Significant change. Runway 21: Clear and dry, 51-100% contamination with <1mm, friction coefficient 0.60. USPP 231100Z 15003MPS 120V180 CAVOK 14/03 Q1026 R21/090060 NOSIG RMK QFE759
VFR 13°C / 3°C 120º variable 080º to 180º 6kt >10km - Clouds and Visibility OK 1026 No Significant change. Runway 21: Clear and dry, 51-100% contamination with <1mm, friction coefficient 0.60. USPP 231030Z 12003MPS 080V180 CAVOK 13/03 Q1026 R21/090060 NOSIG RMK QFE759
VFR 13°C / 3°C 170º variable 110º to 220º 8kt >10km - Clouds and Visibility OK 1027 No Significant change. Runway 21: Clear and dry, 51-100% contamination with <1mm, friction coefficient 0.60. USPP 231000Z 17004MPS 110V220 CAVOK 13/03 Q1027 R21/090060 NOSIG RMK QFE759
VFR 13°C / 3°C 160º variable 110º to 210º 8kt >10km - Clouds and Visibility OK 1027 No Significant change. Runway 21: Clear and dry, 51-100% contamination with <1mm, friction coefficient 0.60. USPP 230930Z 16004MPS 110V210 CAVOK 13/03 Q1027 R21/090060 NOSIG RMK QFE759
VFR 12°C / 3°C 150º variable 120º to 180º 8kt >10km - Clouds and Visibility OK 1027 No Significant change. Runway 21: Clear and dry, 51-100% contamination with <1mm, friction coefficient 0.60. USPP 230900Z 15004MPS 120V180 CAVOK 12/03 Q1027 R21/090060 NOSIG RMK QFE759
VFR 12°C / 3°C 130º variable 100º to 170º 10kt >10km - Clouds and Visibility OK 1027 No Significant change. Runway 21: Clear and dry, 51-100% contamination with <1mm, friction coefficient 0.60. USPP 230830Z 13005MPS 100V170 CAVOK 12/03 Q1027 R21/090060 NOSIG RMK QFE760
VFR 12°C / 3°C 140º variable 110º to 180º 10kt >10km - Clouds and Visibility OK 1027 No Significant change. Runway 21: Clear and dry, 51-100% contamination with <1mm, friction coefficient 0.60. USPP 230800Z 14005MPS 110V180 CAVOK 12/03 Q1027 R21/090060 NOSIG RMK QFE760
VFR 11°C / 4°C 130º 10kt >10km - Clouds and Visibility OK 1028 No Significant change. Runway 21: Clear and dry, 51-100% contamination with <1mm, friction coefficient 0.60. USPP 230730Z 13005MPS CAVOK 11/04 Q1028 R21/090060 NOSIG RMK QFE760
VFR 10°C / 3°C 140º variable 100º to 170º 8kt >10km - Clouds and Visibility OK 1028 No Significant change. Runway 21: Clear and dry, 51-100% contamination with <1mm, friction coefficient 0.60. USPP 230700Z 14004MPS 100V170 CAVOK 10/03 Q1028 R21/090060 NOSIG RMK QFE760
VFR 9°C / 4°C 130º variable 090º to 170º 8kt >10km - Clouds and Visibility OK 1028 No Significant change. Runway 21: Clear and dry, 51-100% contamination with <1mm, friction coefficient 0.60. USPP 230630Z 13004MPS 090V170 CAVOK 09/04 Q1028 R21/090060 NOSIG RMK QFE760
VFR 8°C / 3°C 120º variable 090º to 150º 8kt >10km - Clouds and Visibility OK 1028 No Significant change. Runway 21: Clear and dry, 51-100% contamination with <1mm, friction coefficient 0.60. USPP 230600Z 12004MPS 090V150 CAVOK 08/03 Q1028 R21/090060 NOSIG RMK QFE760
VFR 7°C / 3°C 120º 8kt >10km - Clouds and Visibility OK 1028 No Significant change. Runway 21: Clear and dry, 51-100% contamination with <1mm, friction coefficient 0.60. USPP 230530Z 12004MPS CAVOK 07/03 Q1028 R21/090060 NOSIG RMK QFE760
VFR 6°C / 4°C 130º 10kt >10km - Clouds and Visibility OK 1028 No Significant change. Runway 21: Clear and dry, 51-100% contamination with <1mm, friction coefficient 0.60. USPP 230500Z 13005MPS CAVOK 06/04 Q1028 R21/090060 NOSIG RMK QFE760
VFR 5°C / 3°C 120º 8kt >10km - Clouds and Visibility OK 1028 No Significant change. Runway 21: Clear and dry, 51-100% contamination with <1mm, friction coefficient 0.60. USPP 230430Z 12004MPS CAVOK 05/03 Q1028 R21/090060 NOSIG RMK QFE760
VFR 3°C / 2°C 110º 10kt >10km - Clouds and Visibility OK 1028 No Significant change. Runway 21: Clear and dry, 51-100% contamination with <1mm, friction coefficient 0.60. USPP 230400Z 11005MPS CAVOK 03/02 Q1028 R21/090060 NOSIG RMK QFE760
VFR 2°C / 1°C 120º 6kt >10km - Clouds and Visibility OK 1028 No Significant change. Runway 21: Clear and dry, 51-100% contamination with <1mm, friction coefficient 0.60. USPP 230330Z 12003MPS CAVOK 02/01 Q1028 R21/090060 NOSIG RMK QFE760
VFR 1°C / 1°C 130º 6kt >10km - Clouds and Visibility OK 1027 No Significant change. Runway 21: Clear and dry, 51-100% contamination with <1mm, friction coefficient 0.60. USPP 230300Z 13003MPS CAVOK 01/01 Q1027 R21/090060 NOSIG RMK QFE760

VFR

7°C / 2°C

[Más]
Viento 130º 6kt
Visibilidad >10km
Tiempo -
Nubes Clouds and Visibility OK
Presión 1026
Cambiar No Significant change. Runway 21: Clear and dry, 51-100% contamination with <1mm, friction coefficient 0.60.
Bruto USPP 231430Z 13003MPS CAVOK 07/02 Q1026 R21/090060 NOSIG RMK QFE758

VFR

9°C / 3°C

[Más]
Viento 130º 4kt
Visibilidad >10km
Tiempo -
Nubes Clouds and Visibility OK
Presión 1026
Cambiar No Significant change. Runway 21: Clear and dry, 51-100% contamination with <1mm, friction coefficient 0.60.
Bruto USPP 231400Z 13002MPS CAVOK 09/03 Q1026 R21/090060 NOSIG RMK QFE758

VFR

11°C / 4°C

[Más]
Viento 120º 6kt
Visibilidad >10km
Tiempo -
Nubes Clouds and Visibility OK
Presión 1026
Cambiar No Significant change. Runway 21: Clear and dry, 51-100% contamination with <1mm, friction coefficient 0.60.
Bruto USPP 231330Z 12003MPS CAVOK 11/04 Q1026 R21/090060 NOSIG RMK QFE758

VFR

12°C / 4°C

[Más]
Viento 120º 4kt
Visibilidad >10km
Tiempo -
Nubes Clouds and Visibility OK
Presión 1026
Cambiar No Significant change. Runway 03: Clear and dry, 51-100% contamination with <1mm, friction coefficient 0.60.
Bruto USPP 231300Z 12002MPS CAVOK 12/04 Q1026 R03/090060 NOSIG RMK QFE758

VFR

13°C / 3°C

[Más]
Viento 120º variable 080º to 150º 8kt
Visibilidad >10km
Tiempo -
Nubes Clouds and Visibility OK
Presión 1026
Cambiar No Significant change. Runway 21: Clear and dry, 51-100% contamination with <1mm, friction coefficient 0.60.
Bruto USPP 231230Z 12004MPS 080V150 CAVOK 13/03 Q1026 R21/090060 NOSIG RMK QFE758

VFR

13°C / 3°C

[Más]
Viento 120º variable 090º to 170º 6kt
Visibilidad >10km
Tiempo -
Nubes Clouds and Visibility OK
Presión 1026
Cambiar No Significant change. Runway 21: Clear and dry, 51-100% contamination with <1mm, friction coefficient 0.60.
Bruto USPP 231200Z 12003MPS 090V170 CAVOK 13/03 Q1026 R21/090060 NOSIG RMK QFE758

VFR

14°C / 3°C

[Más]
Viento 120º variable 070º to 160º 6kt
Visibilidad >10km
Tiempo -
Nubes Clouds and Visibility OK
Presión 1026
Cambiar No Significant change. Runway 21: Clear and dry, 51-100% contamination with <1mm, friction coefficient 0.60.
Bruto USPP 231130Z 12003MPS 070V160 CAVOK 14/03 Q1026 R21/090060 NOSIG RMK QFE759

VFR

14°C / 3°C

[Más]
Viento 150º variable 120º to 180º 6kt
Visibilidad >10km
Tiempo -
Nubes Clouds and Visibility OK
Presión 1026
Cambiar No Significant change. Runway 21: Clear and dry, 51-100% contamination with <1mm, friction coefficient 0.60.
Bruto USPP 231100Z 15003MPS 120V180 CAVOK 14/03 Q1026 R21/090060 NOSIG RMK QFE759

VFR

13°C / 3°C

[Más]
Viento 120º variable 080º to 180º 6kt
Visibilidad >10km
Tiempo -
Nubes Clouds and Visibility OK
Presión 1026
Cambiar No Significant change. Runway 21: Clear and dry, 51-100% contamination with <1mm, friction coefficient 0.60.
Bruto USPP 231030Z 12003MPS 080V180 CAVOK 13/03 Q1026 R21/090060 NOSIG RMK QFE759

VFR

13°C / 3°C

[Más]
Viento 170º variable 110º to 220º 8kt
Visibilidad >10km
Tiempo -
Nubes Clouds and Visibility OK
Presión 1027
Cambiar No Significant change. Runway 21: Clear and dry, 51-100% contamination with <1mm, friction coefficient 0.60.
Bruto USPP 231000Z 17004MPS 110V220 CAVOK 13/03 Q1027 R21/090060 NOSIG RMK QFE759

VFR

13°C / 3°C

[Más]
Viento 160º variable 110º to 210º 8kt
Visibilidad >10km
Tiempo -
Nubes Clouds and Visibility OK
Presión 1027
Cambiar No Significant change. Runway 21: Clear and dry, 51-100% contamination with <1mm, friction coefficient 0.60.
Bruto USPP 230930Z 16004MPS 110V210 CAVOK 13/03 Q1027 R21/090060 NOSIG RMK QFE759

VFR

12°C / 3°C

[Más]
Viento 150º variable 120º to 180º 8kt
Visibilidad >10km
Tiempo -
Nubes Clouds and Visibility OK
Presión 1027
Cambiar No Significant change. Runway 21: Clear and dry, 51-100% contamination with <1mm, friction coefficient 0.60.
Bruto USPP 230900Z 15004MPS 120V180 CAVOK 12/03 Q1027 R21/090060 NOSIG RMK QFE759

VFR

12°C / 3°C

[Más]
Viento 130º variable 100º to 170º 10kt
Visibilidad >10km
Tiempo -
Nubes Clouds and Visibility OK
Presión 1027
Cambiar No Significant change. Runway 21: Clear and dry, 51-100% contamination with <1mm, friction coefficient 0.60.
Bruto USPP 230830Z 13005MPS 100V170 CAVOK 12/03 Q1027 R21/090060 NOSIG RMK QFE760

VFR

12°C / 3°C

[Más]
Viento 140º variable 110º to 180º 10kt
Visibilidad >10km
Tiempo -
Nubes Clouds and Visibility OK
Presión 1027
Cambiar No Significant change. Runway 21: Clear and dry, 51-100% contamination with <1mm, friction coefficient 0.60.
Bruto USPP 230800Z 14005MPS 110V180 CAVOK 12/03 Q1027 R21/090060 NOSIG RMK QFE760

VFR

11°C / 4°C

[Más]
Viento 130º 10kt
Visibilidad >10km
Tiempo -
Nubes Clouds and Visibility OK
Presión 1028
Cambiar No Significant change. Runway 21: Clear and dry, 51-100% contamination with <1mm, friction coefficient 0.60.
Bruto USPP 230730Z 13005MPS CAVOK 11/04 Q1028 R21/090060 NOSIG RMK QFE760

VFR

10°C / 3°C

[Más]
Viento 140º variable 100º to 170º 8kt
Visibilidad >10km
Tiempo -
Nubes Clouds and Visibility OK
Presión 1028
Cambiar No Significant change. Runway 21: Clear and dry, 51-100% contamination with <1mm, friction coefficient 0.60.
Bruto USPP 230700Z 14004MPS 100V170 CAVOK 10/03 Q1028 R21/090060 NOSIG RMK QFE760

VFR

9°C / 4°C

[Más]
Viento 130º variable 090º to 170º 8kt
Visibilidad >10km
Tiempo -
Nubes Clouds and Visibility OK
Presión 1028
Cambiar No Significant change. Runway 21: Clear and dry, 51-100% contamination with <1mm, friction coefficient 0.60.
Bruto USPP 230630Z 13004MPS 090V170 CAVOK 09/04 Q1028 R21/090060 NOSIG RMK QFE760

VFR

8°C / 3°C

[Más]
Viento 120º variable 090º to 150º 8kt
Visibilidad >10km
Tiempo -
Nubes Clouds and Visibility OK
Presión 1028
Cambiar No Significant change. Runway 21: Clear and dry, 51-100% contamination with <1mm, friction coefficient 0.60.
Bruto USPP 230600Z 12004MPS 090V150 CAVOK 08/03 Q1028 R21/090060 NOSIG RMK QFE760

VFR

7°C / 3°C

[Más]
Viento 120º 8kt
Visibilidad >10km
Tiempo -
Nubes Clouds and Visibility OK
Presión 1028
Cambiar No Significant change. Runway 21: Clear and dry, 51-100% contamination with <1mm, friction coefficient 0.60.
Bruto USPP 230530Z 12004MPS CAVOK 07/03 Q1028 R21/090060 NOSIG RMK QFE760

VFR

6°C / 4°C

[Más]
Viento 130º 10kt
Visibilidad >10km
Tiempo -
Nubes Clouds and Visibility OK
Presión 1028
Cambiar No Significant change. Runway 21: Clear and dry, 51-100% contamination with <1mm, friction coefficient 0.60.
Bruto USPP 230500Z 13005MPS CAVOK 06/04 Q1028 R21/090060 NOSIG RMK QFE760

VFR

5°C / 3°C

[Más]
Viento 120º 8kt
Visibilidad >10km
Tiempo -
Nubes Clouds and Visibility OK
Presión 1028
Cambiar No Significant change. Runway 21: Clear and dry, 51-100% contamination with <1mm, friction coefficient 0.60.
Bruto USPP 230430Z 12004MPS CAVOK 05/03 Q1028 R21/090060 NOSIG RMK QFE760

VFR

3°C / 2°C

[Más]
Viento 110º 10kt
Visibilidad >10km
Tiempo -
Nubes Clouds and Visibility OK
Presión 1028
Cambiar No Significant change. Runway 21: Clear and dry, 51-100% contamination with <1mm, friction coefficient 0.60.
Bruto USPP 230400Z 11005MPS CAVOK 03/02 Q1028 R21/090060 NOSIG RMK QFE760

VFR

2°C / 1°C

[Más]
Viento 120º 6kt
Visibilidad >10km
Tiempo -
Nubes Clouds and Visibility OK
Presión 1028
Cambiar No Significant change. Runway 21: Clear and dry, 51-100% contamination with <1mm, friction coefficient 0.60.
Bruto USPP 230330Z 12003MPS CAVOK 02/01 Q1028 R21/090060 NOSIG RMK QFE760

VFR

1°C / 1°C

[Más]
Viento 130º 6kt
Visibilidad >10km
Tiempo -
Nubes Clouds and Visibility OK
Presión 1027
Cambiar No Significant change. Runway 21: Clear and dry, 51-100% contamination with <1mm, friction coefficient 0.60.
Bruto USPP 230300Z 13003MPS CAVOK 01/01 Q1027 R21/090060 NOSIG RMK QFE760

TAF a 57.92°N 56.02°E (USPP)

From till


From till Wind 110º 6kt. Gust 16kt. Visibility 6000m. Nil Significant Cloud.
Temporarly from till Visibility 498.895m. Fog .
Becoming from till Wind 150º 6kt. Gust 19kt. Visibility 6000m. Nil Significant Cloud.
Becoming from till Wind 150º 6kt. Gust 19kt. Visibility 10km or more. Nil Significant Cloud.

Bruto: TAF USPP 231358Z 2315/2415 11003G08MPS 6000 NSC TEMPO 2315/2405 0500 FG BECMG 2405/2406 15003G10MPS BECMG 2406/2407 CAVOK

Imágenes actuales de satélite y lluvia para 57.92°N 56.02°E

El marcador de lugar se coloca en 57.92°N 56.02°E. [Más]

La imagen de satélite en tiempo real se aprovecha de la combinación de bandas de la luz visible y de la luz infrarrojo. Como se puede detectar cambios de temperaturas atreves de la banda infrarrojo, la imagen no está escura de noche. No obstante, la niebla y las nubes bajas son apenas visibles en las imágenes infrarrojo como las diferencias de temperaturas entre el suelo y la niebla son muy pequeñas. Por eso son casi invisibles durante la noche. Las imágenes de satélite del Meteosat (Europa) son actualizados en tiempo real cada 5 minutos. Las imágenes del GOES-16/GOES-17 (América del Norte y América del Sur) y Himawari (Asia) son actualizados cada 10 minutos.

Copyright 2021 EUMETSAT / meteoblue. / Copyright 2021 meteoblue

Radar y precipitación nowcast para 57.92°N 56.02°E

llovizna
Leve
Moderado
Fuerte
Muy fuerte
Granizo

El marcador de lugar se coloca en 57.92°N 56.02°E. Esta animación muestra lo radar de precipitaciones hasta la última hora, así como la 1h previsión. Las lloviznas o las nevadas ligeras pueden ser invisibles para el radar. La intensidad de la precipitación está codificada por colores, que van del azul claro al naranja.